createdAt,value
2022-12-01T00:02:06.887Z,45.97
2022-12-01T00:04:34.088Z,37.73
2022-12-01T00:07:01.174Z,45.33
2022-12-01T00:09:28.260Z,47.33
2022-12-01T00:11:55.360Z,45.43
2022-12-01T00:14:23.833Z,52.90
2022-12-01T00:16:50.988Z,45.73
2022-12-01T00:19:18.132Z,40.40
2022-12-01T00:21:46.005Z,37.97
2022-12-01T00:24:13.078Z,50.53
2022-12-01T00:26:40.242Z,53.30
2022-12-01T00:29:08.093Z,46.60
2022-12-01T00:31:36.768Z,42.57
2022-12-01T00:34:08.243Z,44.30
2022-12-01T00:39:19.342Z,46.17
2022-12-01T00:41:46.455Z,47.23
2022-12-01T00:44:13.563Z,54.00
2022-12-01T00:46:41.981Z,47.10
2022-12-01T00:49:11.987Z,37.57
2022-12-01T00:51:39.068Z,44.47
2022-12-01T00:54:06.162Z,43.67
2022-12-01T00:56:33.340Z,43.00
2022-12-01T00:59:00.442Z,47.90
2022-12-01T01:01:27.649Z,47.73
2022-12-01T01:03:56.057Z,47.43
2022-12-01T01:06:23.143Z,47.83
2022-12-01T01:08:50.385Z,41.37
2022-12-01T01:11:17.953Z,47.63
2022-12-01T01:13:45.062Z,48.70
2022-12-01T01:16:15.316Z,44.07
2022-12-01T01:18:42.631Z,42.10
2022-12-01T01:21:12.428Z,41.43
2022-12-01T01:23:39.635Z,50.13
2022-12-01T01:26:08.027Z,43.50
2022-12-01T01:28:35.352Z,45.50
2022-12-01T01:31:05.499Z,46.00
2022-12-01T01:33:32.698Z,52.03
2022-12-01T01:35:59.844Z,49.33
2022-12-01T01:38:28.597Z,45.13
2022-12-01T01:40:56.294Z,46.83
2022-12-01T01:43:38.945Z,44.27
2022-12-01T01:46:06.294Z,47.00
2022-12-01T01:48:34.765Z,41.93
2022-12-01T01:51:02.303Z,51.83
2022-12-01T01:53:31.239Z,45.57
2022-12-01T01:55:58.530Z,49.43
2022-12-01T01:58:26.618Z,44.37
2022-12-01T02:00:53.737Z,47.37
2022-12-01T02:03:20.973Z,38.77
2022-12-01T02:05:48.256Z,41.23
2022-12-01T02:08:15.494Z,40.37
2022-12-01T02:10:50.476Z,47.30
2022-12-01T02:13:22.732Z,51.07
2022-12-01T02:15:55.099Z,47.70
2022-12-01T02:18:24.520Z,52.10
2022-12-01T02:21:15.493Z,50.57
2022-12-01T02:23:55.990Z,42.53
2022-12-01T02:26:31.929Z,57.30
2022-12-01T02:29:09.372Z,54.13
2022-12-01T02:31:40.517Z,62.07
2022-12-01T02:34:12.059Z,61.67
2022-12-01T02:36:46.814Z,58.50
2022-12-01T02:39:17.963Z,61.23
2022-12-01T02:41:49.729Z,59.23
2022-12-01T02:44:18.912Z,68.10
2022-12-01T02:46:50.423Z,64.23
2022-12-01T02:49:19.149Z,57.97
2022-12-01T02:51:46.341Z,63.60
2022-12-01T02:54:14.087Z,64.97
2022-12-01T02:56:41.236Z,63.43
2022-12-01T02:59:09.748Z,65.87
2022-12-01T03:01:44.547Z,67.03
2022-12-01T03:04:19.640Z,71.80
2022-12-01T03:06:49.979Z,60.50
2022-12-01T03:09:21.163Z,69.77
2022-12-01T03:11:50.827Z,69.87
2022-12-01T03:14:23.583Z,68.93
2022-12-01T03:16:51.667Z,70.43
2022-12-01T03:19:22.803Z,68.23
2022-12-01T03:21:52.657Z,79.97
2022-12-01T03:24:22.125Z,75.83
2022-12-01T03:26:52.073Z,75.83
2022-12-01T03:29:21.234Z,71.47
2022-12-01T03:31:49.500Z,72.87
2022-12-01T03:34:18.668Z,91.10
2022-12-01T03:36:48.655Z,80.97
2022-12-01T03:39:16.755Z,65.83
2022-12-01T03:41:44.541Z,77.23
2022-12-01T03:44:12.961Z,69.03
2022-12-01T03:46:42.701Z,66.70
2022-12-01T03:49:10.101Z,67.07
2022-12-01T03:51:40.817Z,74.10
2022-12-01T03:54:10.944Z,70.10
2022-12-01T03:56:39.690Z,77.67
2022-12-01T03:59:08.704Z,89.20
2022-12-01T04:01:36.417Z,65.60
2022-12-01T04:04:07.472Z,74.10
2022-12-01T04:06:34.843Z,61.03
2022-12-01T04:09:02.061Z,69.00
2022-12-01T04:11:32.872Z,82.87
2022-12-01T04:14:00.269Z,66.67
2022-12-01T04:16:27.514Z,76.50
2022-12-01T04:18:54.717Z,71.07
2022-12-01T04:21:21.825Z,70.00
2022-12-01T04:23:48.901Z,74.13
2022-12-01T04:26:16.126Z,73.57
2022-12-01T04:28:44.574Z,81.30
2022-12-01T04:31:11.716Z,78.27
2022-12-01T04:33:38.809Z,70.70
2022-12-01T04:36:06.373Z,79.80
2022-12-01T04:38:33.475Z,67.17
2022-12-01T04:41:00.625Z,64.33
2022-12-01T04:43:27.721Z,59.20
2022-12-01T04:45:56.129Z,66.53
2022-12-01T04:48:23.225Z,61.10
2022-12-01T04:50:50.352Z,59.53
2022-12-01T04:53:17.396Z,55.60
2022-12-01T04:55:44.477Z,53.43
2022-12-01T04:58:11.659Z,54.57
2022-12-01T05:00:38.797Z,48.43
2022-12-01T05:03:12.108Z,55.70
2022-12-01T05:05:41.995Z,51.23
2022-12-01T05:08:09.174Z,49.23
2022-12-01T05:10:36.334Z,47.53
2022-12-01T05:13:03.433Z,45.63
2022-12-01T05:15:30.645Z,44.27
2022-12-01T05:17:57.744Z,49.40
2022-12-01T05:20:26.828Z,39.03
2022-12-01T05:23:05.183Z,46.77
2022-12-01T05:25:32.798Z,47.40
2022-12-01T05:27:59.920Z,47.70
2022-12-01T05:30:28.772Z,38.20
2022-12-01T05:32:56.119Z,53.70
2022-12-01T05:35:23.291Z,37.53
2022-12-01T05:37:51.722Z,35.17
2022-12-01T05:40:18.846Z,52.83
2022-12-01T05:42:45.932Z,35.93
2022-12-01T05:45:13.037Z,46.60
2022-12-01T05:47:40.144Z,43.30
2022-12-01T05:50:08.129Z,40.00
2022-12-01T05:52:35.348Z,45.03
2022-12-01T05:55:03.914Z,45.37
2022-12-01T05:57:31.318Z,40.17
2022-12-01T05:59:58.415Z,38.37
2022-12-01T06:02:25.627Z,36.73
2022-12-01T06:04:52.802Z,34.70
2022-12-01T06:07:19.957Z,35.87
2022-12-01T06:09:47.231Z,41.03
2022-12-01T06:12:15.851Z,35.60
2022-12-01T06:14:42.943Z,38.83
2022-12-01T06:17:10.092Z,37.17
2022-12-01T06:19:37.177Z,42.33
2022-12-01T06:22:04.294Z,40.93
2022-12-01T06:24:31.371Z,49.10
2022-12-01T06:26:58.494Z,38.20
2022-12-01T06:29:26.932Z,43.40
2022-12-01T06:31:54.207Z,45.67
2022-12-01T06:34:21.343Z,47.57
2022-12-01T06:36:48.718Z,53.13
2022-12-01T06:39:16.046Z,40.67
2022-12-01T06:41:43.532Z,49.47
2022-12-01T06:44:10.770Z,54.93
2022-12-01T06:46:39.263Z,51.33
2022-12-01T06:49:06.348Z,44.73
2022-12-01T06:51:34.550Z,47.93
2022-12-01T06:54:05.454Z,47.47
2022-12-01T06:56:32.937Z,50.67
2022-12-01T06:59:00.508Z,49.23
2022-12-01T07:01:27.850Z,44.63
2022-12-01T07:03:56.365Z,44.77
2022-12-01T07:06:23.489Z,48.23
2022-12-01T07:08:50.572Z,43.77
2022-12-01T07:11:17.679Z,45.30
2022-12-01T07:13:45.014Z,49.83
2022-12-01T07:16:12.437Z,35.60
2022-12-01T07:18:40.017Z,47.80
2022-12-01T07:21:09.571Z,57.60
2022-12-01T07:23:37.057Z,46.33
2022-12-01T07:26:06.027Z,52.20
2022-12-01T07:28:33.166Z,48.40
2022-12-01T07:31:01.878Z,45.60
2022-12-01T07:33:28.971Z,44.90
2022-12-01T07:35:56.055Z,43.90
2022-12-01T07:38:24.464Z,47.93
2022-12-01T07:40:51.573Z,47.93
2022-12-01T07:43:18.771Z,45.40
2022-12-01T07:45:45.970Z,44.27
2022-12-01T07:48:13.130Z,50.77
2022-12-01T07:50:40.218Z,51.40
2022-12-01T07:53:07.299Z,41.87
2022-12-01T07:55:35.706Z,46.97
2022-12-01T07:58:02.808Z,57.60
2022-12-01T08:00:29.896Z,53.03
2022-12-01T08:02:57.126Z,54.03
2022-12-01T08:05:24.555Z,47.87
2022-12-01T08:07:54.051Z,55.03
2022-12-01T08:10:21.343Z,53.03
2022-12-01T08:12:50.259Z,49.27
2022-12-01T08:15:17.729Z,50.83
2022-12-01T08:17:45.170Z,53.00
2022-12-01T08:20:12.772Z,54.30
2022-12-01T08:22:40.076Z,69.87
2022-12-01T08:25:07.762Z,61.37
2022-12-01T08:27:35.195Z,60.27
2022-12-01T08:30:03.832Z,64.97
2022-12-01T08:32:31.202Z,69.83
2022-12-01T08:34:58.482Z,73.17
2022-12-01T08:37:25.782Z,65.60
2022-12-01T08:39:52.999Z,71.10
2022-12-01T08:42:20.248Z,65.60
2022-12-01T08:44:47.531Z,78.97
2022-12-01T08:47:18.883Z,71.70
2022-12-01T08:49:46.684Z,68.27
2022-12-01T08:52:13.961Z,74.60
2022-12-01T08:54:41.065Z,65.10
2022-12-01T08:57:08.166Z,60.83
2022-12-01T08:59:35.260Z,55.83
2022-12-01T09:02:06.775Z,72.30
2022-12-01T09:04:35.557Z,76.60
2022-12-01T09:07:02.742Z,59.30
2022-12-01T09:09:29.902Z,64.33
2022-12-01T09:11:56.982Z,49.50
2022-12-01T09:14:24.143Z,62.67
2022-12-01T09:16:51.617Z,64.37
2022-12-01T09:19:24.055Z,59.23
2022-12-01T09:21:53.615Z,58.83
2022-12-01T09:24:20.780Z,56.27
2022-12-01T09:26:47.871Z,46.33
2022-12-01T09:29:15.810Z,58.13
2022-12-01T09:31:42.923Z,51.27
2022-12-01T09:34:11.870Z,49.63
2022-12-01T09:36:39.487Z,44.83
2022-12-01T09:39:08.984Z,47.50
2022-12-01T09:41:37.637Z,41.93
2022-12-01T09:44:11.546Z,40.47
2022-12-01T09:46:41.503Z,44.33
2022-12-01T09:49:13.249Z,50.10
2022-12-01T09:51:40.325Z,45.00
2022-12-01T09:54:09.604Z,43.40
2022-12-01T09:56:41.043Z,51.60
2022-12-01T09:59:08.741Z,42.90
2022-12-01T10:01:37.410Z,53.60
2022-12-01T10:04:08.706Z,43.00
2022-12-01T10:06:38.973Z,43.03
2022-12-01T10:09:08.066Z,41.90
2022-12-01T10:11:37.517Z,41.37
2022-12-01T10:14:04.870Z,34.27
2022-12-01T10:16:35.322Z,42.17
2022-12-01T10:19:04.801Z,35.20
2022-12-01T10:21:41.161Z,44.30
2022-12-01T10:24:13.465Z,38.60
2022-12-01T10:26:46.766Z,34.70
2022-12-01T10:29:16.935Z,42.10
2022-12-01T10:31:50.434Z,34.30
2022-12-01T10:34:18.276Z,35.00
2022-12-01T10:36:45.397Z,37.60
2022-12-01T10:39:17.687Z,38.10
2022-12-01T10:41:46.503Z,35.03
2022-12-01T10:44:13.843Z,46.00
2022-12-01T10:46:43.878Z,49.70
2022-12-01T10:49:11.872Z,39.37
2022-12-01T10:51:53.541Z,44.60
2022-12-01T10:54:20.961Z,37.73
2022-12-01T10:56:50.402Z,45.57
2022-12-01T10:59:23.859Z,50.90
2022-12-01T11:01:51.297Z,40.10
2022-12-01T11:04:29.857Z,36.97
2022-12-01T11:06:57.582Z,52.20
2022-12-01T11:09:26.531Z,41.70
2022-12-01T11:11:58.812Z,37.17
2022-12-01T11:14:28.693Z,47.17
2022-12-01T11:16:55.923Z,37.30
2022-12-01T11:19:28.165Z,38.00
2022-12-01T11:21:56.425Z,52.13
2022-12-01T11:24:33.180Z,33.23
2022-12-01T11:27:01.755Z,50.40
2022-12-01T11:29:32.188Z,41.83
2022-12-01T11:31:59.928Z,44.53
2022-12-01T11:34:28.309Z,35.90
2022-12-01T11:36:56.488Z,34.13
2022-12-01T11:39:26.786Z,41.03
2022-12-01T11:41:55.799Z,48.37
2022-12-01T11:47:22.770Z,44.50
2022-12-01T11:49:53.433Z,41.87
2022-12-01T11:52:25.116Z,40.20
2022-12-01T11:54:56.262Z,42.70
2022-12-01T12:00:15.668Z,44.23
2022-12-01T12:02:47.812Z,46.40
2022-12-01T12:05:26.202Z,46.20
2022-12-01T12:08:00.238Z,39.33
2022-12-01T12:10:35.662Z,48.37
2022-12-01T12:13:09.935Z,42.60
2022-12-01T12:15:45.956Z,40.73
2022-12-01T12:18:20.847Z,47.03
2022-12-01T12:20:56.400Z,41.77
2022-12-01T12:23:31.237Z,42.17
2022-12-01T12:26:03.532Z,40.07
2022-12-01T12:28:38.894Z,52.43
2022-12-01T12:31:10.959Z,50.20
2022-12-01T12:33:53.000Z,56.23
2022-12-01T12:36:25.985Z,45.63
2022-12-01T12:38:59.525Z,45.90
2022-12-01T12:41:30.560Z,48.77
2022-12-01T12:44:04.154Z,43.17
2022-12-01T12:46:36.293Z,47.37
2022-12-01T12:49:24.499Z,42.93
2022-12-01T12:51:53.424Z,51.70
2022-12-01T12:54:22.564Z,46.60
2022-12-01T12:56:52.305Z,53.10
2022-12-01T12:59:22.036Z,51.13
2022-12-01T13:01:56.083Z,50.90
2022-12-01T13:04:25.257Z,49.07
2022-12-01T13:06:53.528Z,45.77
2022-12-01T13:09:22.707Z,57.07
2022-12-01T13:11:52.307Z,58.73
2022-12-01T13:14:23.601Z,53.67
2022-12-01T13:16:54.124Z,58.40
2022-12-01T13:19:24.424Z,48.87
2022-12-01T13:21:53.191Z,57.77
2022-12-01T13:24:23.517Z,56.73
2022-12-01T13:26:52.293Z,53.93
2022-12-01T13:29:22.300Z,59.00
2022-12-01T13:31:51.261Z,59.70
2022-12-01T13:34:22.282Z,61.40
2022-12-01T13:36:50.970Z,64.20
2022-12-01T13:39:19.422Z,69.40
2022-12-01T13:41:46.705Z,62.30
2022-12-01T13:44:22.506Z,69.20
2022-12-01T13:46:53.320Z,73.67
2022-12-01T13:49:35.842Z,61.20
2022-12-01T13:52:26.812Z,73.30
2022-12-01T13:55:00.964Z,73.87
2022-12-01T13:57:29.475Z,63.73
2022-12-01T14:00:05.851Z,73.07
2022-12-01T14:02:42.152Z,68.33
2022-12-01T14:05:28.161Z,77.10
2022-12-01T14:07:56.754Z,66.70
2022-12-01T14:10:25.679Z,65.07
2022-12-01T14:12:54.749Z,71.47
2022-12-01T14:15:24.262Z,74.13
2022-12-01T14:17:59.043Z,72.27
2022-12-01T14:20:27.446Z,71.77
2022-12-01T14:23:05.423Z,71.67
2022-12-01T14:25:32.580Z,79.17
2022-12-01T14:28:00.889Z,76.47
2022-12-01T14:30:46.600Z,75.10
2022-12-01T14:33:37.601Z,76.30
2022-12-01T14:36:07.050Z,74.43
2022-12-01T14:38:35.674Z,80.37
2022-12-01T14:41:07.373Z,72.03
2022-12-01T14:43:35.395Z,71.27
2022-12-01T14:46:05.192Z,81.83
2022-12-01T14:48:35.327Z,75.20
2022-12-01T14:51:10.147Z,82.47
2022-12-01T14:53:41.050Z,89.60
2022-12-01T14:56:10.255Z,86.07
2022-12-01T14:58:37.359Z,82.23
2022-12-01T15:01:06.599Z,79.93
2022-12-01T15:03:35.867Z,79.10
2022-12-01T15:06:03.016Z,88.17
2022-12-01T15:11:24.560Z,89.97
2022-12-01T15:13:52.464Z,80.37
2022-12-01T15:16:20.989Z,85.73
2022-12-01T15:18:48.269Z,82.80
2022-12-01T15:21:17.964Z,84.80
2022-12-01T15:23:58.980Z,76.10
2022-12-01T15:26:28.940Z,83.17
2022-12-01T15:29:06.272Z,76.93
2022-12-01T15:31:34.498Z,81.33
2022-12-01T15:34:01.687Z,86.33
2022-12-01T15:36:28.904Z,81.10
2022-12-01T15:38:56.326Z,75.10
2022-12-01T15:41:31.695Z,79.23
2022-12-01T15:44:00.431Z,79.10
2022-12-01T15:46:28.800Z,93.80
2022-12-01T15:49:06.751Z,70.00
2022-12-01T15:51:33.937Z,74.50
2022-12-01T15:54:02.038Z,81.20
2022-12-01T15:56:31.180Z,78.07
2022-12-01T15:59:03.427Z,79.60
2022-12-01T16:01:31.614Z,80.70
2022-12-01T16:03:59.612Z,89.53
2022-12-01T16:06:29.168Z,88.97
2022-12-01T16:08:58.249Z,81.07
2022-12-01T16:11:25.700Z,85.97
2022-12-01T16:14:00.263Z,81.53
2022-12-01T16:16:32.151Z,79.30
2022-12-01T16:19:00.115Z,89.37
2022-12-01T16:21:27.639Z,87.83
2022-12-01T16:24:01.589Z,74.83
2022-12-01T16:26:29.605Z,74.67
2022-12-01T16:28:57.122Z,86.17
2022-12-01T16:31:26.069Z,78.00
2022-12-01T16:34:00.278Z,90.00
2022-12-01T16:36:27.385Z,73.83
2022-12-01T16:38:54.465Z,85.30
2022-12-01T16:41:27.978Z,80.47
2022-12-01T16:44:26.654Z,78.20
2022-12-01T16:46:44.786Z,71.97
2022-12-01T16:49:11.872Z,77.73
2022-12-01T16:51:54.689Z,65.83
2022-12-01T16:54:22.775Z,81.87
2022-12-01T16:56:49.878Z,71.90
2022-12-01T16:59:16.989Z,63.03
2022-12-01T17:01:45.481Z,74.70
2022-12-01T17:04:12.643Z,68.73
2022-12-01T17:06:39.741Z,89.30
2022-12-01T17:09:06.837Z,70.43
2022-12-01T17:11:33.901Z,65.33
2022-12-01T17:14:00.984Z,66.47
2022-12-01T17:16:28.112Z,68.10
2022-12-01T17:18:56.581Z,70.57
2022-12-01T17:21:23.690Z,70.50
2022-12-01T17:23:50.805Z,75.57
2022-12-01T17:26:21.283Z,70.93
2022-12-01T17:28:48.654Z,66.83
2022-12-01T17:31:15.871Z,64.57
2022-12-01T17:33:43.187Z,75.90
2022-12-01T17:36:12.990Z,72.80
2022-12-01T17:38:40.800Z,75.40
2022-12-01T17:41:09.207Z,72.13
2022-12-01T17:43:37.247Z,78.17
2022-12-01T17:46:05.078Z,72.73
2022-12-01T17:48:35.370Z,78.83
2022-12-01T17:51:02.472Z,71.67
2022-12-01T17:53:30.913Z,70.03
2022-12-01T17:55:57.993Z,69.10
2022-12-01T17:58:25.403Z,80.23
2022-12-01T18:00:53.201Z,71.50
2022-12-01T18:03:20.758Z,76.83
2022-12-01T18:05:54.749Z,65.47
2022-12-01T18:08:21.858Z,77.87
2022-12-01T18:10:50.296Z,74.17
2022-12-01T18:13:19.279Z,78.83
2022-12-01T18:15:47.453Z,68.93
2022-12-01T18:18:14.612Z,74.90
2022-12-01T18:20:41.735Z,74.10
2022-12-01T18:23:08.999Z,70.47
2022-12-01T18:25:36.140Z,71.47
2022-12-01T18:28:05.338Z,69.50
2022-12-01T18:30:33.942Z,81.10
2022-12-01T18:33:01.179Z,81.63
2022-12-01T18:35:31.732Z,84.40
2022-12-01T18:37:59.218Z,75.13
2022-12-01T18:40:26.704Z,68.13
2022-12-01T18:42:53.824Z,84.03
2022-12-01T18:45:22.232Z,80.73
2022-12-01T18:47:49.319Z,66.17
2022-12-01T18:50:16.540Z,71.73
2022-12-01T18:52:43.630Z,81.47
2022-12-01T18:55:10.710Z,78.13
2022-12-01T18:57:37.971Z,77.90
2022-12-01T19:00:05.916Z,83.40
2022-12-01T19:02:34.425Z,76.90
2022-12-01T19:05:01.585Z,74.70
2022-12-01T19:07:30.171Z,76.17
2022-12-01T19:09:58.310Z,78.43
2022-12-01T19:12:25.747Z,82.03
2022-12-01T19:14:53.103Z,77.23
2022-12-01T19:17:20.394Z,96.67
2022-12-01T19:19:49.404Z,91.73
2022-12-01T19:22:18.280Z,87.87
2022-12-01T19:24:50.211Z,97.70
2022-12-01T19:27:17.956Z,89.90
2022-12-01T19:29:45.034Z,88.60
2022-12-01T19:32:13.391Z,87.23
2022-12-01T19:34:40.483Z,77.43
2022-12-01T19:37:08.941Z,76.37
2022-12-01T19:39:36.081Z,84.47
2022-12-01T19:42:04.017Z,89.10
2022-12-01T19:44:31.646Z,83.17
2022-12-01T19:46:58.907Z,77.40
2022-12-01T19:49:26.038Z,85.10
2022-12-01T19:51:53.110Z,71.53
2022-12-01T19:54:21.713Z,74.60
2022-12-01T19:56:48.811Z,76.70
2022-12-01T19:59:15.872Z,73.97
2022-12-01T20:01:43.197Z,71.27
2022-12-01T20:04:10.428Z,81.20
2022-12-01T20:06:37.935Z,81.90
2022-12-01T20:09:06.185Z,56.00
2022-12-01T20:11:34.869Z,46.93
2022-12-01T20:14:02.228Z,49.53
2022-12-01T20:16:29.755Z,43.93
2022-12-01T20:18:59.851Z,52.53
2022-12-01T20:21:27.888Z,46.20
2022-12-01T20:23:56.665Z,43.40
2022-12-01T20:26:28.915Z,41.13
2022-12-01T20:29:01.098Z,39.17
2022-12-01T20:31:29.149Z,40.90
2022-12-01T20:33:57.772Z,40.43
2022-12-01T20:36:24.868Z,36.50
2022-12-01T20:38:51.994Z,37.30
2022-12-01T20:41:19.517Z,43.87
2022-12-01T20:43:46.762Z,41.77
2022-12-01T20:46:15.706Z,37.83
2022-12-01T20:48:42.881Z,45.60
2022-12-01T20:51:11.543Z,43.80
2022-12-01T20:53:38.658Z,44.07
2022-12-01T20:56:06.651Z,37.20
2022-12-01T20:58:37.495Z,34.37
2022-12-01T21:01:07.462Z,36.90
2022-12-01T21:03:35.970Z,37.33
2022-12-01T21:06:03.052Z,38.33
2022-12-01T21:08:30.186Z,39.93
2022-12-01T21:10:57.322Z,31.93
2022-12-01T21:13:25.636Z,42.50
2022-12-01T21:15:58.590Z,38.27
2022-12-01T21:18:30.270Z,42.27
2022-12-01T21:21:03.395Z,43.27
2022-12-01T21:23:30.463Z,38.47
2022-12-01T21:25:57.723Z,39.90
2022-12-01T21:28:26.216Z,36.90
2022-12-01T21:30:59.201Z,37.07
2022-12-01T21:33:27.489Z,38.47
2022-12-01T21:35:55.330Z,34.57
2022-12-01T21:38:23.821Z,38.20
2022-12-01T21:40:50.892Z,46.83
2022-12-01T21:43:18.929Z,46.20
2022-12-01T21:45:46.656Z,45.93
2022-12-01T21:48:15.695Z,41.43
2022-12-01T21:50:42.797Z,48.93
2022-12-01T21:53:11.952Z,44.57
2022-12-01T21:55:40.879Z,39.23
2022-12-01T21:58:20.596Z,44.17
2022-12-01T22:00:47.712Z,40.77
2022-12-01T22:03:25.227Z,31.07
2022-12-01T22:06:21.162Z,44.13
2022-12-01T22:08:41.247Z,40.47
2022-12-01T22:11:13.016Z,43.50
2022-12-01T22:13:41.572Z,49.33
2022-12-01T22:16:16.568Z,45.03
2022-12-01T22:18:45.840Z,36.37
2022-12-01T22:21:32.441Z,47.27
2022-12-01T22:24:02.215Z,44.10
2022-12-01T22:26:31.786Z,41.30
2022-12-01T22:28:59.456Z,43.67
2022-12-01T22:31:26.852Z,41.63
2022-12-01T22:34:00.041Z,43.40
2022-12-01T22:36:31.135Z,39.20
2022-12-01T22:38:58.398Z,42.20
2022-12-01T22:41:25.491Z,37.93
2022-12-01T22:43:55.721Z,41.13
2022-12-01T22:46:24.632Z,40.40
2022-12-01T22:48:52.524Z,39.33
2022-12-01T22:51:24.996Z,42.97
2022-12-01T22:53:53.782Z,38.93
2022-12-01T22:56:27.527Z,47.23
2022-12-01T22:58:56.090Z,33.70
2022-12-01T23:01:25.261Z,38.63
2022-12-01T23:03:54.078Z,41.77
2022-12-01T23:06:39.746Z,40.13
2022-12-01T23:09:12.178Z,40.40
2022-12-01T23:11:39.290Z,41.53
2022-12-01T23:14:09.553Z,43.20
2022-12-01T23:16:38.274Z,42.30
2022-12-01T23:19:05.383Z,43.93
2022-12-01T23:21:32.450Z,36.93
2022-12-01T23:23:59.603Z,49.40
2022-12-01T23:26:26.726Z,44.50
2022-12-01T23:28:56.218Z,46.00
2022-12-01T23:31:24.817Z,45.17
2022-12-01T23:33:52.027Z,53.20
2022-12-01T23:36:20.087Z,38.27
2022-12-01T23:38:48.072Z,45.33
2022-12-01T23:41:23.960Z,47.63
2022-12-01T23:43:52.548Z,48.47
2022-12-01T23:46:20.992Z,49.93
2022-12-01T23:48:51.647Z,47.57
2022-12-01T23:51:19.773Z,58.27
2022-12-01T23:53:46.974Z,48.40
2022-12-01T23:56:16.556Z,51.40
2022-12-01T23:58:43.942Z,50.33
